sensor_id;sensor_type;location;lat;lon;timestamp;P1;durP1;ratioP1;P2;durP2;ratioP2
14663;SDS011;7419;52.184;5.944;2023-05-02T00:03:26;5.26;;;3.45;;
14663;SDS011;7419;52.184;5.944;2023-05-02T00:03:26;6.19;;;3.20;;
14663;SDS011;7419;52.184;5.944;2023-05-02T00:03:26;8.87;;;2.92;;
14663;SDS011;7419;52.184;5.944;2023-05-02T00:04:26;7.76;;;3.47;;
14663;SDS011;7419;52.184;5.944;2023-05-02T00:05:26;6.94;;;3.03;;
14663;SDS011;7419;52.184;5.944;2023-05-02T00:06:28;6.16;;;2.88;;
14663;SDS011;7419;52.184;5.944;2023-05-02T00:07:26;4.75;;;3.09;;
14663;SDS011;7419;52.184;5.944;2023-05-02T00:08:26;7.03;;;2.84;;
14663;SDS011;7419;52.184;5.944;2023-05-02T00:09:26;4.29;;;2.99;;
14663;SDS011;7419;52.184;5.944;2023-05-02T00:10:26;5.44;;;2.69;;
14663;SDS011;7419;52.184;5.944;2023-05-02T00:11:26;5.85;;;2.64;;
14663;SDS011;7419;52.184;5.944;2023-05-02T00:12:26;5.16;;;2.63;;
14663;SDS011;7419;52.184;5.944;2023-05-02T00:13:26;6.45;;;3.15;;
14663;SDS011;7419;52.184;5.944;2023-05-02T00:14:27;5.55;;;2.52;;
14663;SDS011;7419;52.184;5.944;2023-05-02T00:15:27;5.27;;;2.48;;
14663;SDS011;7419;52.184;5.944;2023-05-02T00:16:27;5.25;;;2.76;;
14663;SDS011;7419;52.184;5.944;2023-05-02T00:17:27;5.00;;;2.27;;
14663;SDS011;7419;52.184;5.944;2023-05-02T00:18:27;10.19;;;2.54;;
14663;SDS011;7419;52.184;5.944;2023-05-02T00:19:27;6.55;;;2.72;;
14663;SDS011;7419;52.184;5.944;2023-05-02T00:20:27;5.38;;;2.60;;
14663;SDS011;7419;52.184;5.944;2023-05-02T00:21:27;4.87;;;2.72;;
14663;SDS011;7419;52.184;5.944;2023-05-02T00:22:27;7.27;;;3.09;;
14663;SDS011;7419;52.184;5.944;2023-05-02T00:23:27;7.23;;;2.49;;
14663;SDS011;7419;52.184;5.944;2023-05-02T00:24:27;5.34;;;2.63;;
14663;SDS011;7419;52.184;5.944;2023-05-02T00:25:27;8.53;;;2.73;;
14663;SDS011;7419;52.184;5.944;2023-05-02T00:26:27;4.11;;;2.72;;
14663;SDS011;7419;52.184;5.944;2023-05-02T00:27:28;3.15;;;2.43;;
14663;SDS011;7419;52.184;5.944;2023-05-02T00:28:27;3.56;;;2.78;;
14663;SDS011;7419;52.184;5.944;2023-05-02T00:29:27;6.21;;;2.36;;
14663;SDS011;7419;52.184;5.944;2023-05-02T00:30:28;6.21;;;2.51;;
14663;SDS011;7419;52.184;5.944;2023-05-02T00:31:28;4.21;;;2.45;;
14663;SDS011;7419;52.184;5.944;2023-05-02T00:32:28;5.43;;;2.91;;
14663;SDS011;7419;52.184;5.944;2023-05-02T00:33:28;4.72;;;2.73;;
14663;SDS011;7419;52.184;5.944;2023-05-02T00:34:28;3.96;;;2.74;;
14663;SDS011;7419;52.184;5.944;2023-05-02T00:35:28;3.03;;;2.59;;
14663;SDS011;7419;52.184;5.944;2023-05-02T00:36:28;5.87;;;2.37;;
14663;SDS011;7419;52.184;5.944;2023-05-02T00:37:28;4.56;;;2.60;;
14663;SDS011;7419;52.184;5.944;2023-05-02T00:38:28;5.32;;;2.33;;
14663;SDS011;7419;52.184;5.944;2023-05-02T00:39:28;6.55;;;2.73;;
14663;SDS011;7419;52.184;5.944;2023-05-02T00:40:28;5.59;;;2.62;;
14663;SDS011;7419;52.184;5.944;2023-05-02T00:41:28;5.31;;;2.39;;
14663;SDS011;7419;52.184;5.944;2023-05-02T00:42:28;5.67;;;2.67;;
14663;SDS011;7419;52.184;5.944;2023-05-02T00:43:29;3.04;;;2.43;;
14663;SDS011;7419;52.184;5.944;2023-05-02T00:44:29;4.33;;;2.07;;
14663;SDS011;7419;52.184;5.944;2023-05-02T00:45:29;4.56;;;2.80;;
14663;SDS011;7419;52.184;5.944;2023-05-02T00:46:29;4.51;;;3.21;;
14663;SDS011;7419;52.184;5.944;2023-05-02T00:47:29;3.67;;;2.95;;
14663;SDS011;7419;52.184;5.944;2023-05-02T00:48:29;6.34;;;2.94;;
14663;SDS011;7419;52.184;5.944;2023-05-02T00:49:29;6.72;;;3.35;;
14663;SDS011;7419;52.184;5.944;2023-05-02T00:50:29;6.10;;;3.31;;
14663;SDS011;7419;52.184;5.944;2023-05-02T00:51:30;7.36;;;3.47;;
14663;SDS011;7419;52.184;5.944;2023-05-02T00:52:29;7.55;;;2.82;;
14663;SDS011;7419;52.184;5.944;2023-05-02T00:53:29;4.19;;;3.40;;
14663;SDS011;7419;52.184;5.944;2023-05-02T00:54:29;5.65;;;2.99;;
14663;SDS011;7419;52.184;5.944;2023-05-02T00:55:30;4.63;;;3.10;;
14663;SDS011;7419;52.184;5.944;2023-05-02T00:56:29;7.27;;;3.52;;
14663;SDS011;7419;52.184;5.944;2023-05-02T00:57:29;4.93;;;2.96;;
14663;SDS011;7419;52.184;5.944;2023-05-02T00:58:29;6.36;;;3.41;;
14663;SDS011;7419;52.184;5.944;2023-05-02T00:59:30;6.16;;;3.34;;
14663;SDS011;7419;52.184;5.944;2023-05-02T01:00:35;5.07;;;2.82;;
14663;SDS011;7419;52.184;5.944;2023-05-02T01:01:32;4.65;;;3.26;;
14663;SDS011;7419;52.184;5.944;2023-05-02T01:02:31;8.64;;;3.43;;
14663;SDS011;7419;52.184;5.944;2023-05-02T01:03:31;8.59;;;4.14;;
14663;SDS011;7419;52.184;5.944;2023-05-02T01:04:31;5.88;;;3.52;;
14663;SDS011;7419;52.184;5.944;2023-05-02T01:05:32;7.55;;;3.72;;
14663;SDS011;7419;52.184;5.944;2023-05-02T01:06:33;9.33;;;3.54;;
14663;SDS011;7419;52.184;5.944;2023-05-02T01:07:34;6.39;;;3.62;;
14663;SDS011;7419;52.184;5.944;2023-05-02T01:08:33;8.03;;;3.66;;
14663;SDS011;7419;52.184;5.944;2023-05-02T01:09:33;5.32;;;3.18;;
14663;SDS011;7419;52.184;5.944;2023-05-02T01:10:42;9.82;;;2.90;;
14663;SDS011;7419;52.184;5.944;2023-05-02T01:11:33;7.27;;;3.66;;
14663;SDS011;7419;52.184;5.944;2023-05-02T01:12:32;6.22;;;3.29;;
14663;SDS011;7419;52.184;5.944;2023-05-02T01:13:31;7.43;;;3.31;;
14663;SDS011;7419;52.184;5.944;2023-05-02T01:14:32;6.93;;;3.69;;
14663;SDS011;7419;52.184;5.944;2023-05-02T01:15:30;5.74;;;3.25;;
14663;SDS011;7419;52.184;5.944;2023-05-02T01:16:31;6.47;;;3.56;;
14663;SDS011;7419;52.184;5.944;2023-05-02T01:17:31;7.45;;;4.01;;
14663;SDS011;7419;52.184;5.944;2023-05-02T01:18:31;5.68;;;3.41;;
14663;SDS011;7419;52.184;5.944;2023-05-02T01:19:31;5.77;;;2.14;;
14663;SDS011;7419;52.184;5.944;2023-05-02T01:20:31;5.08;;;2.70;;
14663;SDS011;7419;52.184;5.944;2023-05-02T01:21:31;3.58;;;2.29;;
14663;SDS011;7419;52.184;5.944;2023-05-02T01:22:31;4.81;;;2.21;;
14663;SDS011;7419;52.184;5.944;2023-05-02T01:23:38;3.28;;;1.91;;
14663;SDS011;7419;52.184;5.944;2023-05-02T01:24:31;2.51;;;1.50;;
14663;SDS011;7419;52.184;5.944;2023-05-02T01:25:32;3.11;;;1.52;;
14663;SDS011;7419;52.184;5.944;2023-05-02T01:26:32;1.80;;;1.37;;
14663;SDS011;7419;52.184;5.944;2023-05-02T01:27:33;1.83;;;1.32;;
14663;SDS011;7419;52.184;5.944;2023-05-02T01:28:34;2.32;;;1.16;;
14663;SDS011;7419;52.184;5.944;2023-05-02T01:29:31;2.95;;;1.22;;
14663;SDS011;7419;52.184;5.944;2023-05-02T01:30:31;2.27;;;1.52;;
14663;SDS011;7419;52.184;5.944;2023-05-02T01:31:32;1.66;;;1.27;;
14663;SDS011;7419;52.184;5.944;2023-05-02T01:32:32;1.41;;;1.10;;
14663;SDS011;7419;52.184;5.944;2023-05-02T01:33:31;1.32;;;1.12;;
14663;SDS011;7419;52.184;5.944;2023-05-02T01:34:31;1.21;;;0.96;;
14663;SDS011;7419;52.184;5.944;2023-05-02T01:35:31;1.97;;;0.66;;
14663;SDS011;7419;52.184;5.944;2023-05-02T01:36:31;1.29;;;0.86;;
14663;SDS011;7419;52.184;5.944;2023-05-02T01:37:32;1.80;;;0.76;;
14663;SDS011;7419;52.184;5.944;2023-05-02T01:38:32;2.91;;;0.84;;
14663;SDS011;7419;52.184;5.944;2023-05-02T01:39:32;4.35;;;0.83;;
14663;SDS011;7419;52.184;5.944;2023-05-02T01:40:32;1.67;;;0.84;;
14663;SDS011;7419;52.184;5.944;2023-05-02T01:41:32;1.73;;;0.68;;
14663;SDS011;7419;52.184;5.944;2023-05-02T01:42:32;3.03;;;0.72;;
14663;SDS011;7419;52.184;5.944;2023-05-02T01:43:32;1.03;;;0.76;;
14663;SDS011;7419;52.184;5.944;2023-05-02T01:44:32;0.72;;;0.47;;
14663;SDS011;7419;52.184;5.944;2023-05-02T01:45:32;5.19;;;0.70;;
14663;SDS011;7419;52.184;5.944;2023-05-02T01:46:33;1.89;;;0.69;;
14663;SDS011;7419;52.184;5.944;2023-05-02T01:47:32;3.25;;;0.81;;
14663;SDS011;7419;52.184;5.944;2023-05-02T01:48:32;1.19;;;0.60;;
14663;SDS011;7419;52.184;5.944;2023-05-02T01:49:32;2.97;;;0.92;;
14663;SDS011;7419;52.184;5.944;2023-05-02T01:50:32;2.21;;;0.53;;
14663;SDS011;7419;52.184;5.944;2023-05-02T01:51:33;2.21;;;0.79;;
14663;SDS011;7419;52.184;5.944;2023-05-02T01:52:32;2.02;;;0.77;;
14663;SDS011;7419;52.184;5.944;2023-05-02T01:53:32;3.61;;;0.78;;
14663;SDS011;7419;52.184;5.944;2023-05-02T01:54:34;1.46;;;0.61;;
14663;SDS011;7419;52.184;5.944;2023-05-02T01:55:33;2.70;;;0.87;;
14663;SDS011;7419;52.184;5.944;2023-05-02T01:56:34;1.86;;;0.60;;
14663;SDS011;7419;52.184;5.944;2023-05-02T01:57:33;2.37;;;0.51;;
14663;SDS011;7419;52.184;5.944;2023-05-02T01:58:33;2.61;;;0.53;;
14663;SDS011;7419;52.184;5.944;2023-05-02T01:59:33;2.40;;;0.45;;
14663;SDS011;7419;52.184;5.944;2023-05-02T02:00:33;0.96;;;0.42;;
14663;SDS011;7419;52.184;5.944;2023-05-02T02:01:33;0.75;;;0.22;;
14663;SDS011;7419;52.184;5.944;2023-05-02T02:02:33;0.91;;;0.47;;
14663;SDS011;7419;52.184;5.944;2023-05-02T02:03:33;2.28;;;0.51;;
14663;SDS011;7419;52.184;5.944;2023-05-02T02:04:33;0.47;;;0.47;;
14663;SDS011;7419;52.184;5.944;2023-05-02T02:05:33;2.89;;;0.72;;
14663;SDS011;7419;52.184;5.944;2023-05-02T02:06:33;2.62;;;0.41;;
14663;SDS011;7419;52.184;5.944;2023-05-02T02:07:33;6.81;;;0.84;;
14663;SDS011;7419;52.184;5.944;2023-05-02T02:08:34;4.29;;;0.79;;
14663;SDS011;7419;52.184;5.944;2023-05-02T02:09:33;3.52;;;0.36;;
14663;SDS011;7419;52.184;5.944;2023-05-02T02:10:34;3.99;;;0.80;;
14663;SDS011;7419;52.184;5.944;2023-05-02T02:11:34;4.38;;;0.49;;
14663;SDS011;7419;52.184;5.944;2023-05-02T02:12:34;3.07;;;0.92;;
14663;SDS011;7419;52.184;5.944;2023-05-02T02:13:34;1.78;;;0.69;;
14663;SDS011;7419;52.184;5.944;2023-05-02T02:14:35;2.93;;;0.79;;
14663;SDS011;7419;52.184;5.944;2023-05-02T02:15:34;2.19;;;0.85;;
14663;SDS011;7419;52.184;5.944;2023-05-02T02:16:35;2.34;;;0.55;;
14663;SDS011;7419;52.184;5.944;2023-05-02T02:17:35;1.20;;;0.89;;
14663;SDS011;7419;52.184;5.944;2023-05-02T02:18:35;1.95;;;0.54;;
14663;SDS011;7419;52.184;5.944;2023-05-02T02:19:34;2.41;;;0.45;;
14663;SDS011;7419;52.184;5.944;2023-05-02T02:20:34;3.32;;;0.57;;
14663;SDS011;7419;52.184;5.944;2023-05-02T02:21:34;0.69;;;0.46;;
14663;SDS011;7419;52.184;5.944;2023-05-02T02:22:36;0.31;;;0.31;;
14663;SDS011;7419;52.184;5.944;2023-05-02T02:23:34;1.57;;;0.62;;
14663;SDS011;7419;52.184;5.944;2023-05-02T02:24:35;1.12;;;0.48;;
14663;SDS011;7419;52.184;5.944;2023-05-02T02:25:34;1.13;;;0.43;;
14663;SDS011;7419;52.184;5.944;2023-05-02T02:26:35;0.52;;;0.50;;
14663;SDS011;7419;52.184;5.944;2023-05-02T02:27:35;0.88;;;0.43;;
14663;SDS011;7419;52.184;5.944;2023-05-02T02:28:34;1.25;;;0.32;;
14663;SDS011;7419;52.184;5.944;2023-05-02T02:29:35;1.77;;;0.42;;
14663;SDS011;7419;52.184;5.944;2023-05-02T02:30:35;2.07;;;0.53;;
14663;SDS011;7419;52.184;5.944;2023-05-02T02:31:35;2.18;;;0.58;;
14663;SDS011;7419;52.184;5.944;2023-05-02T02:32:35;1.29;;;0.52;;
14663;SDS011;7419;52.184;5.944;2023-05-02T02:33:35;1.38;;;0.63;;
14663;SDS011;7419;52.184;5.944;2023-05-02T02:34:35;1.44;;;0.40;;
14663;SDS011;7419;52.184;5.944;2023-05-02T02:35:36;0.63;;;0.41;;
14663;SDS011;7419;52.184;5.944;2023-05-02T02:36:38;1.78;;;0.65;;
14663;SDS011;7419;52.184;5.944;2023-05-02T02:37:36;1.25;;;0.49;;
14663;SDS011;7419;52.184;5.944;2023-05-02T02:38:37;2.01;;;0.70;;
14663;SDS011;7419;52.184;5.944;2023-05-02T02:39:38;2.47;;;0.51;;
14663;SDS011;7419;52.184;5.944;2023-05-02T02:40:36;2.88;;;0.49;;
14663;SDS011;7419;52.184;5.944;2023-05-02T02:41:37;5.01;;;0.84;;
14663;SDS011;7419;52.184;5.944;2023-05-02T02:42:36;1.47;;;0.44;;
14663;SDS011;7419;52.184;5.944;2023-05-02T02:43:37;2.23;;;0.33;;
14663;SDS011;7419;52.184;5.944;2023-05-02T02:44:39;1.64;;;0.65;;
14663;SDS011;7419;52.184;5.944;2023-05-02T02:45:37;1.18;;;0.33;;
14663;SDS011;7419;52.184;5.944;2023-05-02T02:46:43;2.21;;;0.61;;
14663;SDS011;7419;52.184;5.944;2023-05-02T02:47:41;0.58;;;0.43;;
14663;SDS011;7419;52.184;5.944;2023-05-02T02:48:36;1.57;;;0.37;;
14663;SDS011;7419;52.184;5.944;2023-05-02T02:49:38;2.86;;;0.27;;
14663;SDS011;7419;52.184;5.944;2023-05-02T02:50:37;0.58;;;0.55;;
14663;SDS011;7419;52.184;5.944;2023-05-02T02:51:37;0.57;;;0.35;;
14663;SDS011;7419;52.184;5.944;2023-05-02T02:52:38;0.75;;;0.43;;
14663;SDS011;7419;52.184;5.944;2023-05-02T02:53:38;2.05;;;0.57;;
14663;SDS011;7419;52.184;5.944;2023-05-02T02:54:38;0.95;;;0.45;;
14663;SDS011;7419;52.184;5.944;2023-05-02T02:55:37;0.92;;;0.40;;
14663;SDS011;7419;52.184;5.944;2023-05-02T02:56:38;1.21;;;0.89;;
14663;SDS011;7419;52.184;5.944;2023-05-02T02:57:38;1.76;;;0.36;;
14663;SDS011;7419;52.184;5.944;2023-05-02T02:58:38;1.20;;;0.53;;
14663;SDS011;7419;52.184;5.944;2023-05-02T02:59:37;2.23;;;0.25;;
14663;SDS011;7419;52.184;5.944;2023-05-02T03:00:36;1.23;;;0.39;;
14663;SDS011;7419;52.184;5.944;2023-05-02T03:01:37;0.82;;;0.22;;
14663;SDS011;7419;52.184;5.944;2023-05-02T03:02:37;0.86;;;0.57;;
14663;SDS011;7419;52.184;5.944;2023-05-02T03:03:36;0.85;;;0.43;;
14663;SDS011;7419;52.184;5.944;2023-05-02T03:04:38;2.08;;;0.45;;
14663;SDS011;7419;52.184;5.944;2023-05-02T03:05:37;1.35;;;0.36;;
14663;SDS011;7419;52.184;5.944;2023-05-02T03:06:37;2.24;;;0.84;;
14663;SDS011;7419;52.184;5.944;2023-05-02T03:07:37;0.63;;;0.42;;
14663;SDS011;7419;52.184;5.944;2023-05-02T03:08:37;1.86;;;0.51;;
14663;SDS011;7419;52.184;5.944;2023-05-02T03:09:40;1.19;;;0.39;;
14663;SDS011;7419;52.184;5.944;2023-05-02T03:10:37;2.39;;;0.37;;
14663;SDS011;7419;52.184;5.944;2023-05-02T03:11:37;1.93;;;0.46;;
14663;SDS011;7419;52.184;5.944;2023-05-02T03:12:37;4.36;;;0.41;;
14663;SDS011;7419;52.184;5.944;2023-05-02T03:13:37;1.72;;;0.54;;
14663;SDS011;7419;52.184;5.944;2023-05-02T03:14:37;1.65;;;1.03;;
14663;SDS011;7419;52.184;5.944;2023-05-02T03:15:48;3.50;;;0.69;;
14663;SDS011;7419;52.184;5.944;2023-05-02T03:16:37;0.74;;;0.42;;
14663;SDS011;7419;52.184;5.944;2023-05-02T03:17:37;1.39;;;0.21;;
14663;SDS011;7419;52.184;5.944;2023-05-02T03:18:37;3.04;;;0.33;;
14663;SDS011;7419;52.184;5.944;2023-05-02T03:19:37;1.00;;;0.30;;
14663;SDS011;7419;52.184;5.944;2023-05-02T03:20:37;0.57;;;0.37;;
14663;SDS011;7419;52.184;5.944;2023-05-02T03:21:37;2.35;;;0.45;;
14663;SDS011;7419;52.184;5.944;2023-05-02T03:22:38;2.87;;;0.51;;
14663;SDS011;7419;52.184;5.944;2023-05-02T03:23:38;1.70;;;0.54;;
14663;SDS011;7419;52.184;5.944;2023-05-02T03:24:38;0.99;;;0.34;;
14663;SDS011;7419;52.184;5.944;2023-05-02T03:25:38;1.08;;;0.41;;
14663;SDS011;7419;52.184;5.944;2023-05-02T03:26:38;0.39;;;0.27;;
14663;SDS011;7419;52.184;5.944;2023-05-02T03:27:38;1.36;;;0.54;;
14663;SDS011;7419;52.184;5.944;2023-05-02T03:28:38;1.13;;;0.64;;
14663;SDS011;7419;52.184;5.944;2023-05-02T03:29:38;1.13;;;0.59;;
14663;SDS011;7419;52.184;5.944;2023-05-02T03:30:38;2.67;;;0.32;;
14663;SDS011;7419;52.184;5.944;2023-05-02T03:31:38;3.07;;;0.29;;
14663;SDS011;7419;52.184;5.944;2023-05-02T03:32:38;2.88;;;0.49;;
14663;SDS011;7419;52.184;5.944;2023-05-02T03:33:38;1.80;;;0.35;;
14663;SDS011;7419;52.184;5.944;2023-05-02T03:34:38;2.13;;;0.33;;
14663;SDS011;7419;52.184;5.944;2023-05-02T03:35:38;4.48;;;0.54;;
14663;SDS011;7419;52.184;5.944;2023-05-02T03:36:38;3.84;;;0.28;;
14663;SDS011;7419;52.184;5.944;2023-05-02T03:37:38;1.21;;;0.26;;
14663;SDS011;7419;52.184;5.944;2023-05-02T03:38:39;0.95;;;0.30;;
14663;SDS011;7419;52.184;5.944;2023-05-02T03:39:39;1.19;;;0.27;;
14663;SDS011;7419;52.184;5.944;2023-05-02T03:40:39;1.25;;;0.44;;
14663;SDS011;7419;52.184;5.944;2023-05-02T03:41:39;1.21;;;0.27;;
14663;SDS011;7419;52.184;5.944;2023-05-02T03:42:40;1.18;;;1.03;;
14663;SDS011;7419;52.184;5.944;2023-05-02T03:43:39;1.63;;;0.26;;
14663;SDS011;7419;52.184;5.944;2023-05-02T03:44:39;0.65;;;0.38;;
14663;SDS011;7419;52.184;5.944;2023-05-02T03:45:39;0.40;;;0.35;;
14663;SDS011;7419;52.184;5.944;2023-05-02T03:46:39;2.48;;;0.64;;
14663;SDS011;7419;52.184;5.944;2023-05-02T03:47:39;0.95;;;0.35;;
14663;SDS011;7419;52.184;5.944;2023-05-02T03:48:39;0.45;;;0.25;;
14663;SDS011;7419;52.184;5.944;2023-05-02T03:49:39;1.47;;;0.44;;
14663;SDS011;7419;52.184;5.944;2023-05-02T03:50:39;0.42;;;0.30;;
14663;SDS011;7419;52.184;5.944;2023-05-02T03:51:39;2.09;;;0.81;;
14663;SDS011;7419;52.184;5.944;2023-05-02T03:52:39;0.76;;;0.28;;
14663;SDS011;7419;52.184;5.944;2023-05-02T03:53:39;2.45;;;0.73;;
14663;SDS011;7419;52.184;5.944;2023-05-02T03:54:39;3.19;;;0.45;;
14663;SDS011;7419;52.184;5.944;2023-05-02T03:55:40;2.42;;;0.55;;
14663;SDS011;7419;52.184;5.944;2023-05-02T03:56:40;4.29;;;0.46;;
14663;SDS011;7419;52.184;5.944;2023-05-02T03:57:40;1.11;;;0.41;;
14663;SDS011;7419;52.184;5.944;2023-05-02T03:58:40;2.77;;;0.64;;
14663;SDS011;7419;52.184;5.944;2023-05-02T03:59:40;3.20;;;0.55;;
14663;SDS011;7419;52.184;5.944;2023-05-02T04:00:40;1.14;;;0.75;;
14663;SDS011;7419;52.184;5.944;2023-05-02T04:01:40;1.44;;;0.53;;
14663;SDS011;7419;52.184;5.944;2023-05-02T04:02:40;1.24;;;0.59;;
14663;SDS011;7419;52.184;5.944;2023-05-02T04:03:40;2.75;;;0.75;;
14663;SDS011;7419;52.184;5.944;2023-05-02T04:04:40;3.32;;;0.52;;
14663;SDS011;7419;52.184;5.944;2023-05-02T04:05:40;0.95;;;0.33;;
14663;SDS011;7419;52.184;5.944;2023-05-02T04:06:40;1.28;;;0.49;;
14663;SDS011;7419;52.184;5.944;2023-05-02T04:07:40;2.25;;;0.76;;
14663;SDS011;7419;52.184;5.944;2023-05-02T04:08:40;2.24;;;0.30;;
14663;SDS011;7419;52.184;5.944;2023-05-02T04:09:40;1.57;;;0.69;;
14663;SDS011;7419;52.184;5.944;2023-05-02T04:10:40;1.96;;;0.41;;
14663;SDS011;7419;52.184;5.944;2023-05-02T04:11:41;2.02;;;0.41;;
14663;SDS011;7419;52.184;5.944;2023-05-02T04:12:41;1.90;;;0.51;;
14663;SDS011;7419;52.184;5.944;2023-05-02T04:13:41;2.11;;;0.75;;
14663;SDS011;7419;52.184;5.944;2023-05-02T04:14:41;2.65;;;0.72;;
14663;SDS011;7419;52.184;5.944;2023-05-02T04:15:41;2.89;;;0.46;;
14663;SDS011;7419;52.184;5.944;2023-05-02T04:16:41;1.97;;;0.42;;
14663;SDS011;7419;52.184;5.944;2023-05-02T04:17:41;5.86;;;0.59;;
14663;SDS011;7419;52.184;5.944;2023-05-02T04:18:41;3.42;;;0.91;;
14663;SDS011;7419;52.184;5.944;2023-05-02T04:19:41;1.15;;;0.29;;
14663;SDS011;7419;52.184;5.944;2023-05-02T04:20:41;1.54;;;0.54;;
14663;SDS011;7419;52.184;5.944;2023-05-02T04:21:41;1.23;;;0.36;;
14663;SDS011;7419;52.184;5.944;2023-05-02T04:22:41;3.27;;;0.77;;
14663;SDS011;7419;52.184;5.944;2023-05-02T04:23:41;2.41;;;0.29;;
14663;SDS011;7419;52.184;5.944;2023-05-02T04:24:41;2.77;;;1.04;;
14663;SDS011;7419;52.184;5.944;2023-05-02T04:25:49;1.42;;;0.59;;
14663;SDS011;7419;52.184;5.944;2023-05-02T04:26:41;0.78;;;0.56;;
14663;SDS011;7419;52.184;5.944;2023-05-02T04:27:42;4.51;;;0.57;;
14663;SDS011;7419;52.184;5.944;2023-05-02T04:28:41;1.44;;;0.59;;
14663;SDS011;7419;52.184;5.944;2023-05-02T04:29:41;0.79;;;0.28;;
14663;SDS011;7419;52.184;5.944;2023-05-02T04:30:42;1.52;;;0.55;;
14663;SDS011;7419;52.184;5.944;2023-05-02T04:31:42;3.56;;;0.58;;
14663;SDS011;7419;52.184;5.944;2023-05-02T04:32:42;6.13;;;0.65;;
14663;SDS011;7419;52.184;5.944;2023-05-02T04:33:42;4.96;;;0.71;;
14663;SDS011;7419;52.184;5.944;2023-05-02T04:34:42;1.46;;;0.31;;
14663;SDS011;7419;52.184;5.944;2023-05-02T04:35:42;1.44;;;0.53;;
14663;SDS011;7419;52.184;5.944;2023-05-02T04:36:43;2.22;;;0.40;;
14663;SDS011;7419;52.184;5.944;2023-05-02T04:37:42;5.53;;;1.03;;
14663;SDS011;7419;52.184;5.944;2023-05-02T04:38:42;1.15;;;0.63;;
14663;SDS011;7419;52.184;5.944;2023-05-02T04:39:42;0.76;;;0.41;;
14663;SDS011;7419;52.184;5.944;2023-05-02T04:40:42;2.58;;;0.91;;
14663;SDS011;7419;52.184;5.944;2023-05-02T04:41:42;3.26;;;0.65;;
14663;SDS011;7419;52.184;5.944;2023-05-02T04:42:42;1.18;;;0.44;;
14663;SDS011;7419;52.184;5.944;2023-05-02T04:43:42;0.56;;;0.31;;
14663;SDS011;7419;52.184;5.944;2023-05-02T04:44:42;4.37;;;0.75;;
14663;SDS011;7419;52.184;5.944;2023-05-02T04:45:42;5.49;;;0.90;;
14663;SDS011;7419;52.184;5.944;2023-05-02T04:46:43;4.87;;;0.79;;
14663;SDS011;7419;52.184;5.944;2023-05-02T04:47:43;1.96;;;1.12;;
14663;SDS011;7419;52.184;5.944;2023-05-02T04:48:43;1.81;;;0.59;;
14663;SDS011;7419;52.184;5.944;2023-05-02T04:49:43;1.01;;;0.68;;
14663;SDS011;7419;52.184;5.944;2023-05-02T04:50:43;2.27;;;0.84;;
14663;SDS011;7419;52.184;5.944;2023-05-02T04:51:43;2.14;;;0.63;;
14663;SDS011;7419;52.184;5.944;2023-05-02T04:52:43;0.63;;;0.40;;
14663;SDS011;7419;52.184;5.944;2023-05-02T04:53:43;5.80;;;1.02;;
14663;SDS011;7419;52.184;5.944;2023-05-02T04:54:43;2.92;;;0.56;;
14663;SDS011;7419;52.184;5.944;2023-05-02T04:55:43;3.85;;;1.00;;
14663;SDS011;7419;52.184;5.944;2023-05-02T04:56:43;3.85;;;1.00;;
14663;SDS011;7419;52.184;5.944;2023-05-02T04:57:43;2.39;;;0.68;;
14663;SDS011;7419;52.184;5.944;2023-05-02T04:58:43;5.25;;;1.45;;
14663;SDS011;7419;52.184;5.944;2023-05-02T04:59:43;4.19;;;1.18;;
14663;SDS011;7419;52.184;5.944;2023-05-02T05:00:43;0.89;;;0.53;;
14663;SDS011;7419;52.184;5.944;2023-05-02T05:01:44;5.30;;;0.86;;
14663;SDS011;7419;52.184;5.944;2023-05-02T05:02:44;4.15;;;0.73;;
14663;SDS011;7419;52.184;5.944;2023-05-02T05:03:44;5.75;;;0.88;;
14663;SDS011;7419;52.184;5.944;2023-05-02T05:04:44;4.47;;;0.94;;
14663;SDS011;7419;52.184;5.944;2023-05-02T05:05:44;3.08;;;1.06;;
14663;SDS011;7419;52.184;5.944;2023-05-02T05:06:44;5.96;;;0.63;;
14663;SDS011;7419;52.184;5.944;2023-05-02T05:07:44;2.09;;;0.39;;
14663;SDS011;7419;52.184;5.944;2023-05-02T05:08:44;4.72;;;0.78;;
14663;SDS011;7419;52.184;5.944;2023-05-02T05:09:44;5.40;;;0.81;;
14663;SDS011;7419;52.184;5.944;2023-05-02T05:10:44;9.38;;;1.19;;
14663;SDS011;7419;52.184;5.944;2023-05-02T05:11:44;4.47;;;1.22;;
14663;SDS011;7419;52.184;5.944;2023-05-02T05:12:44;5.95;;;0.77;;
14663;SDS011;7419;52.184;5.944;2023-05-02T05:13:44;2.33;;;0.83;;
14663;SDS011;7419;52.184;5.944;2023-05-02T05:14:44;5.50;;;1.19;;
14663;SDS011;7419;52.184;5.944;2023-05-02T05:15:46;6.85;;;1.29;;
14663;SDS011;7419;52.184;5.944;2023-05-02T05:16:45;3.81;;;0.96;;
14663;SDS011;7419;52.184;5.944;2023-05-02T05:17:45;0.97;;;0.72;;
14663;SDS011;7419;52.184;5.944;2023-05-02T05:18:45;3.99;;;0.53;;
14663;SDS011;7419;52.184;5.944;2023-05-02T05:19:45;2.93;;;0.96;;
14663;SDS011;7419;52.184;5.944;2023-05-02T05:20:45;5.34;;;1.45;;
14663;SDS011;7419;52.184;5.944;2023-05-02T05:21:45;4.89;;;1.09;;
14663;SDS011;7419;52.184;5.944;2023-05-02T05:22:45;5.03;;;0.96;;
14663;SDS011;7419;52.184;5.944;2023-05-02T05:23:45;3.91;;;0.77;;
14663;SDS011;7419;52.184;5.944;2023-05-02T05:24:49;4.60;;;1.25;;
14663;SDS011;7419;52.184;5.944;2023-05-02T05:25:45;2.04;;;0.72;;
14663;SDS011;7419;52.184;5.944;2023-05-02T05:26:45;11.02;;;1.14;;
14663;SDS011;7419;52.184;5.944;2023-05-02T05:27:45;5.53;;;1.40;;
14663;SDS011;7419;52.184;5.944;2023-05-02T05:28:45;4.26;;;1.27;;
14663;SDS011;7419;52.184;5.944;2023-05-02T05:29:45;1.76;;;0.96;;
14663;SDS011;7419;52.184;5.944;2023-05-02T05:30:45;5.33;;;1.24;;
14663;SDS011;7419;52.184;5.944;2023-05-02T05:31:46;4.40;;;1.20;;
14663;SDS011;7419;52.184;5.944;2023-05-02T05:32:46;2.64;;;0.94;;
14663;SDS011;7419;52.184;5.944;2023-05-02T05:33:46;3.73;;;0.78;;
14663;SDS011;7419;52.184;5.944;2023-05-02T05:34:50;2.95;;;1.15;;
14663;SDS011;7419;52.184;5.944;2023-05-02T05:35:46;4.52;;;1.73;;
14663;SDS011;7419;52.184;5.944;2023-05-02T05:36:46;5.05;;;1.16;;
14663;SDS011;7419;52.184;5.944;2023-05-02T05:37:46;3.34;;;1.22;;
14663;SDS011;7419;52.184;5.944;2023-05-02T05:38:46;1.93;;;0.55;;
14663;SDS011;7419;52.184;5.944;2023-05-02T05:39:46;5.22;;;1.03;;
14663;SDS011;7419;52.184;5.944;2023-05-02T05:40:48;2.70;;;0.94;;
14663;SDS011;7419;52.184;5.944;2023-05-02T05:41:46;3.58;;;0.69;;
14663;SDS011;7419;52.184;5.944;2023-05-02T05:42:46;5.55;;;1.12;;
14663;SDS011;7419;52.184;5.944;2023-05-02T05:43:46;3.91;;;1.30;;
14663;SDS011;7419;52.184;5.944;2023-05-02T05:44:46;4.36;;;0.91;;
14663;SDS011;7419;52.184;5.944;2023-05-02T05:45:47;3.01;;;1.00;;
14663;SDS011;7419;52.184;5.944;2023-05-02T05:46:47;3.22;;;0.97;;
14663;SDS011;7419;52.184;5.944;2023-05-02T05:47:47;2.50;;;0.49;;
14663;SDS011;7419;52.184;5.944;2023-05-02T05:48:47;4.28;;;0.81;;
14663;SDS011;7419;52.184;5.944;2023-05-02T05:49:47;4.10;;;1.07;;
14663;SDS011;7419;52.184;5.944;2023-05-02T05:50:47;3.93;;;0.98;;
14663;SDS011;7419;52.184;5.944;2023-05-02T05:51:47;7.68;;;1.84;;
14663;SDS011;7419;52.184;5.944;2023-05-02T05:52:47;4.22;;;1.49;;
14663;SDS011;7419;52.184;5.944;2023-05-02T05:53:47;3.58;;;0.98;;
14663;SDS011;7419;52.184;5.944;2023-05-02T05:54:47;4.60;;;0.90;;
14663;SDS011;7419;52.184;5.944;2023-05-02T05:55:47;2.37;;;1.16;;
14663;SDS011;7419;52.184;5.944;2023-05-02T05:56:47;3.63;;;1.02;;
14663;SDS011;7419;52.184;5.944;2023-05-02T05:57:47;4.38;;;1.32;;
14663;SDS011;7419;52.184;5.944;2023-05-02T05:58:47;2.40;;;1.32;;
14663;SDS011;7419;52.184;5.944;2023-05-02T05:59:47;2.50;;;0.87;;
14663;SDS011;7419;52.184;5.944;2023-05-02T06:00:47;6.38;;;1.54;;
14663;SDS011;7419;52.184;5.944;2023-05-02T06:01:47;2.81;;;1.24;;
14663;SDS011;7419;52.184;5.944;2023-05-02T06:02:47;2.61;;;0.92;;
14663;SDS011;7419;52.184;5.944;2023-05-02T06:03:48;4.75;;;1.43;;
14663;SDS011;7419;52.184;5.944;2023-05-02T06:04:48;7.65;;;1.53;;
14663;SDS011;7419;52.184;5.944;2023-05-02T06:05:48;4.31;;;1.24;;
14663;SDS011;7419;52.184;5.944;2023-05-02T06:06:48;5.60;;;1.15;;
14663;SDS011;7419;52.184;5.944;2023-05-02T06:07:48;2.95;;;1.06;;